KFME/FME METAR and TAF weather

Enter ICAO airport designator
Station Type Date Time Source
KFME METAR 2020/12/06 01:55 UTC NOAA

KFME 060155Z AUTO 31005KT 10SM OVC050 05/M01 A2996 RMK AO1


Station Type Date Time Source
KFME Decoded METAR 2020/12/06 01:55 UTC NOAA

Fort Meade / Tipton, MD, United States (KFME) 39-05N 076-46W
Dec 05, 2020 - 08:55 PM EST / 2020.12.06 0155 UTC
Wind: from the NW (310 degrees) at 6 MPH (5 KT):0
Visibility: 10 mile(s):0
Sky conditions: overcast
Temperature: 41 F (5 C)
Dew Point: 30 F (-1 C)
Relative Humidity: 65%
Pressure (altimeter): 29.96 in. Hg (1014 hPa)
ob: KFME 060155Z AUTO 31005KT 10SM OVC050 05/M01 A2996 RMK AO1
cycle: 2

Station Type Date Time Source
KFME TAF UTC NOAA

Error!

Example: see airport list